Adco, Washington
Current Conditions -  °F | °C
As of 5:53 AM on Monday 24 Nov 2014 (Local Time) from KEPH Reporting Station
Clear Clear  
Wind Chill: 31°   Ceiling: Unl
Heat Index: 35°   Visibility: 10mi
Dew Point: 27°   Wind: 5mph
Humidity: 72%   Direction: 280°W
Pressure: 30.31"   Gusts: NA
Location:  47.4314°N, 119.485°W
Report Text: KEPH 241353Z AUTO 28004KT 10SM CLR 02/M03 A3031 RMK AO2 SLP274 T00171028 $
Loading
Personal Weather Stations






























Interactive Weather Map New forecast layout! Learn more

10-Day Weather Forecast

Advertisements
Track Severe Weather on mobile